sensor_id;sensor_type;location;lat;lon;timestamp;P1;durP1;ratioP1;P2;durP2;ratioP2
30948;SDS011;17637;51.984;21.208;2022-11-09T00:00:08;38.72;;;25.85;;
30948;SDS011;17637;51.984;21.208;2022-11-09T00:02:36;35.25;;;23.35;;
30948;SDS011;17637;51.984;21.208;2022-11-09T00:05:09;33.17;;;22.88;;
30948;SDS011;17637;51.984;21.208;2022-11-09T00:07:36;40.08;;;25.58;;
30948;SDS011;17637;51.984;21.208;2022-11-09T00:10:03;38.20;;;25.08;;
30948;SDS011;17637;51.984;21.208;2022-11-09T00:12:30;45.85;;;25.83;;
30948;SDS011;17637;51.984;21.208;2022-11-09T00:14:57;40.70;;;27.45;;
30948;SDS011;17637;51.984;21.208;2022-11-09T00:17:24;34.35;;;23.35;;
30948;SDS011;17637;51.984;21.208;2022-11-09T00:19:51;37.83;;;24.92;;
30948;SDS011;17637;51.984;21.208;2022-11-09T00:22:18;36.60;;;24.60;;
30948;SDS011;17637;51.984;21.208;2022-11-09T00:24:45;39.47;;;24.85;;
30948;SDS011;17637;51.984;21.208;2022-11-09T00:27:12;35.35;;;21.63;;
30948;SDS011;17637;51.984;21.208;2022-11-09T00:29:43;41.08;;;26.52;;
30948;SDS011;17637;51.984;21.208;2022-11-09T00:32:10;40.50;;;24.95;;
30948;SDS011;17637;51.984;21.208;2022-11-09T00:34:37;39.25;;;23.90;;
30948;SDS011;17637;51.984;21.208;2022-11-09T00:37:04;43.75;;;28.02;;
30948;SDS011;17637;51.984;21.208;2022-11-09T00:39:31;48.30;;;30.88;;
30948;SDS011;17637;51.984;21.208;2022-11-09T00:41:58;36.30;;;24.25;;
30948;SDS011;17637;51.984;21.208;2022-11-09T00:44:25;37.50;;;25.67;;
30948;SDS011;17637;51.984;21.208;2022-11-09T00:46:52;43.95;;;27.27;;
30948;SDS011;17637;51.984;21.208;2022-11-09T00:49:19;37.35;;;24.63;;
30948;SDS011;17637;51.984;21.208;2022-11-09T00:51:46;37.15;;;24.17;;
30948;SDS011;17637;51.984;21.208;2022-11-09T00:54:13;33.40;;;22.75;;
30948;SDS011;17637;51.984;21.208;2022-11-09T00:56:40;30.77;;;22.17;;
30948;SDS011;17637;51.984;21.208;2022-11-09T00:59:09;36.15;;;23.15;;
30948;SDS011;17637;51.984;21.208;2022-11-09T01:01:36;38.45;;;25.13;;
30948;SDS011;17637;51.984;21.208;2022-11-09T01:04:03;33.80;;;22.95;;
30948;SDS011;17637;51.984;21.208;2022-11-09T01:06:31;44.83;;;26.42;;
30948;SDS011;17637;51.984;21.208;2022-11-09T01:08:59;40.78;;;26.65;;
30948;SDS011;17637;51.984;21.208;2022-11-09T01:11:26;44.25;;;28.40;;
30948;SDS011;17637;51.984;21.208;2022-11-09T01:13:53;38.20;;;25.35;;
30948;SDS011;17637;51.984;21.208;2022-11-09T01:16:21;43.53;;;27.02;;
30948;SDS011;17637;51.984;21.208;2022-11-09T01:18:53;38.28;;;25.80;;
30948;SDS011;17637;51.984;21.208;2022-11-09T01:21:21;35.45;;;22.33;;
30948;SDS011;17637;51.984;21.208;2022-11-09T01:23:48;31.13;;;22.40;;
30948;SDS011;17637;51.984;21.208;2022-11-09T01:26:16;34.85;;;22.40;;
30948;SDS011;17637;51.984;21.208;2022-11-09T01:28:43;37.30;;;25.08;;
30948;SDS011;17637;51.984;21.208;2022-11-09T01:31:12;40.33;;;25.05;;
30948;SDS011;17637;51.984;21.208;2022-11-09T01:33:42;37.20;;;24.35;;
30948;SDS011;17637;51.984;21.208;2022-11-09T01:36:15;39.75;;;23.42;;
30948;SDS011;17637;51.984;21.208;2022-11-09T01:38:44;37.72;;;24.65;;
30948;SDS011;17637;51.984;21.208;2022-11-09T01:41:15;35.10;;;23.85;;
30948;SDS011;17637;51.984;21.208;2022-11-09T01:44:05;38.80;;;24.65;;
30948;SDS011;17637;51.984;21.208;2022-11-09T01:54:58;43.03;;;25.48;;
30948;SDS011;17637;51.984;21.208;2022-11-09T01:57:40;36.28;;;23.90;;
30948;SDS011;17637;51.984;21.208;2022-11-09T02:00:12;44.28;;;26.80;;
30948;SDS011;17637;51.984;21.208;2022-11-09T02:02:51;41.85;;;27.02;;
30948;SDS011;17637;51.984;21.208;2022-11-09T02:05:24;39.05;;;26.27;;
30948;SDS011;17637;51.984;21.208;2022-11-09T02:07:54;44.35;;;27.58;;
30948;SDS011;17637;51.984;21.208;2022-11-09T02:12:56;43.92;;;27.80;;
30948;SDS011;17637;51.984;21.208;2022-11-09T02:15:25;37.72;;;23.70;;
30948;SDS011;17637;51.984;21.208;2022-11-09T02:17:53;48.83;;;28.30;;
30948;SDS011;17637;51.984;21.208;2022-11-09T02:20:22;45.25;;;25.40;;
30948;SDS011;17637;51.984;21.208;2022-11-09T02:22:53;45.50;;;28.45;;
30948;SDS011;17637;51.984;21.208;2022-11-09T02:25:20;48.42;;;30.48;;
30948;SDS011;17637;51.984;21.208;2022-11-09T02:27:47;41.78;;;26.60;;
30948;SDS011;17637;51.984;21.208;2022-11-09T02:30:15;44.40;;;28.60;;
30948;SDS011;17637;51.984;21.208;2022-11-09T02:32:45;40.13;;;25.93;;
30948;SDS011;17637;51.984;21.208;2022-11-09T02:35:12;39.92;;;24.60;;
30948;SDS011;17637;51.984;21.208;2022-11-09T02:37:41;48.92;;;28.42;;
30948;SDS011;17637;51.984;21.208;2022-11-09T02:40:22;41.88;;;26.40;;
30948;SDS011;17637;51.984;21.208;2022-11-09T02:42:55;45.50;;;27.57;;
30948;SDS011;17637;51.984;21.208;2022-11-09T02:45:23;39.50;;;26.60;;
30948;SDS011;17637;51.984;21.208;2022-11-09T02:47:50;44.70;;;28.42;;
30948;SDS011;17637;51.984;21.208;2022-11-09T02:50:17;41.80;;;25.08;;
30948;SDS011;17637;51.984;21.208;2022-11-09T02:52:45;40.22;;;25.15;;
30948;SDS011;17637;51.984;21.208;2022-11-09T02:55:12;42.10;;;27.17;;
30948;SDS011;17637;51.984;21.208;2022-11-09T02:57:39;41.30;;;28.10;;
30948;SDS011;17637;51.984;21.208;2022-11-09T03:00:06;46.67;;;27.52;;
30948;SDS011;17637;51.984;21.208;2022-11-09T03:02:34;42.13;;;27.55;;
30948;SDS011;17637;51.984;21.208;2022-11-09T03:05:02;47.03;;;28.70;;
30948;SDS011;17637;51.984;21.208;2022-11-09T03:07:29;46.72;;;27.50;;
30948;SDS011;17637;51.984;21.208;2022-11-09T03:09:57;48.47;;;30.75;;
30948;SDS011;17637;51.984;21.208;2022-11-09T03:12:25;47.42;;;29.02;;
30948;SDS011;17637;51.984;21.208;2022-11-09T03:14:57;45.60;;;27.10;;
30948;SDS011;17637;51.984;21.208;2022-11-09T03:17:25;42.17;;;26.42;;
30948;SDS011;17637;51.984;21.208;2022-11-09T03:19:53;47.78;;;29.40;;
30948;SDS011;17637;51.984;21.208;2022-11-09T03:22:20;43.97;;;27.10;;
30948;SDS011;17637;51.984;21.208;2022-11-09T03:24:48;43.20;;;27.27;;
30948;SDS011;17637;51.984;21.208;2022-11-09T03:27:15;52.72;;;31.05;;
30948;SDS011;17637;51.984;21.208;2022-11-09T03:29:42;51.83;;;30.38;;
30948;SDS011;17637;51.984;21.208;2022-11-09T03:32:09;55.08;;;32.30;;
30948;SDS011;17637;51.984;21.208;2022-11-09T03:34:36;46.55;;;29.15;;
30948;SDS011;17637;51.984;21.208;2022-11-09T03:37:03;44.70;;;26.75;;
30948;SDS011;17637;51.984;21.208;2022-11-09T03:39:30;45.58;;;28.63;;
30948;SDS011;17637;51.984;21.208;2022-11-09T03:41:58;46.90;;;28.48;;
30948;SDS011;17637;51.984;21.208;2022-11-09T03:44:25;40.25;;;26.63;;
30948;SDS011;17637;51.984;21.208;2022-11-09T03:46:52;45.78;;;28.27;;
30948;SDS011;17637;51.984;21.208;2022-11-09T03:49:19;47.83;;;28.77;;
30948;SDS011;17637;51.984;21.208;2022-11-09T03:51:49;45.53;;;28.15;;
30948;SDS011;17637;51.984;21.208;2022-11-09T03:54:17;47.92;;;30.02;;
30948;SDS011;17637;51.984;21.208;2022-11-09T03:56:44;46.53;;;28.50;;
30948;SDS011;17637;51.984;21.208;2022-11-09T03:59:11;48.38;;;29.63;;
30948;SDS011;17637;51.984;21.208;2022-11-09T04:01:38;46.58;;;28.38;;
30948;SDS011;17637;51.984;21.208;2022-11-09T04:04:05;46.28;;;28.08;;
30948;SDS011;17637;51.984;21.208;2022-11-09T04:06:32;45.13;;;27.85;;
30948;SDS011;17637;51.984;21.208;2022-11-09T04:08:59;43.97;;;28.00;;
30948;SDS011;17637;51.984;21.208;2022-11-09T04:11:27;43.20;;;27.30;;
30948;SDS011;17637;51.984;21.208;2022-11-09T04:13:55;48.28;;;28.55;;
30948;SDS011;17637;51.984;21.208;2022-11-09T04:16:22;49.40;;;29.05;;
30948;SDS011;17637;51.984;21.208;2022-11-09T04:18:49;54.88;;;32.65;;
30948;SDS011;17637;51.984;21.208;2022-11-09T04:21:15;49.90;;;29.30;;
30948;SDS011;17637;51.984;21.208;2022-11-09T04:23:48;46.47;;;27.67;;
30948;SDS011;17637;51.984;21.208;2022-11-09T04:26:16;43.63;;;27.02;;
30948;SDS011;17637;51.984;21.208;2022-11-09T04:28:43;48.70;;;29.45;;
30948;SDS011;17637;51.984;21.208;2022-11-09T04:31:10;48.13;;;29.17;;
30948;SDS011;17637;51.984;21.208;2022-11-09T04:33:37;50.38;;;29.25;;
30948;SDS011;17637;51.984;21.208;2022-11-09T04:36:04;52.45;;;30.52;;
30948;SDS011;17637;51.984;21.208;2022-11-09T04:38:31;45.72;;;27.73;;
30948;SDS011;17637;51.984;21.208;2022-11-09T04:40:59;42.63;;;27.92;;
30948;SDS011;17637;51.984;21.208;2022-11-09T04:43:29;42.85;;;27.02;;
30948;SDS011;17637;51.984;21.208;2022-11-09T04:45:58;45.33;;;28.13;;
30948;SDS011;17637;51.984;21.208;2022-11-09T04:48:28;50.10;;;28.30;;
30948;SDS011;17637;51.984;21.208;2022-11-09T04:51:00;56.63;;;32.40;;
30948;SDS011;17637;51.984;21.208;2022-11-09T04:53:31;46.53;;;26.88;;
30948;SDS011;17637;51.984;21.208;2022-11-09T04:56:00;47.42;;;27.15;;
30948;SDS011;17637;51.984;21.208;2022-11-09T04:58:27;52.25;;;31.00;;
30948;SDS011;17637;51.984;21.208;2022-11-09T05:00:54;50.08;;;29.45;;
30948;SDS011;17637;51.984;21.208;2022-11-09T05:03:26;42.55;;;26.75;;
30948;SDS011;17637;51.984;21.208;2022-11-09T05:05:53;51.03;;;29.92;;
30948;SDS011;17637;51.984;21.208;2022-11-09T05:08:20;45.72;;;28.02;;
30948;SDS011;17637;51.984;21.208;2022-11-09T05:10:47;45.67;;;28.55;;
30948;SDS011;17637;51.984;21.208;2022-11-09T05:13:14;51.30;;;30.80;;
30948;SDS011;17637;51.984;21.208;2022-11-09T05:15:45;53.00;;;31.77;;
30948;SDS011;17637;51.984;21.208;2022-11-09T05:18:12;44.67;;;27.95;;
30948;SDS011;17637;51.984;21.208;2022-11-09T05:20:39;56.13;;;31.88;;
30948;SDS011;17637;51.984;21.208;2022-11-09T05:23:06;63.08;;;33.90;;
30948;SDS011;17637;51.984;21.208;2022-11-09T05:25:51;48.33;;;30.23;;
30948;SDS011;17637;51.984;21.208;2022-11-09T05:28:18;46.80;;;27.48;;
30948;SDS011;17637;51.984;21.208;2022-11-09T05:30:45;59.00;;;32.38;;
30948;SDS011;17637;51.984;21.208;2022-11-09T05:33:12;59.00;;;31.50;;
30948;SDS011;17637;51.984;21.208;2022-11-09T05:35:40;50.03;;;29.30;;
30948;SDS011;17637;51.984;21.208;2022-11-09T05:38:07;56.70;;;32.40;;
30948;SDS011;17637;51.984;21.208;2022-11-09T05:40:34;53.28;;;30.92;;
30948;SDS011;17637;51.984;21.208;2022-11-09T05:43:01;56.75;;;30.88;;
30948;SDS011;17637;51.984;21.208;2022-11-09T05:45:28;54.67;;;30.08;;
30948;SDS011;17637;51.984;21.208;2022-11-09T05:48:08;59.28;;;32.10;;
30948;SDS011;17637;51.984;21.208;2022-11-09T05:50:36;46.05;;;27.23;;
30948;SDS011;17637;51.984;21.208;2022-11-09T05:53:04;61.53;;;33.58;;
30948;SDS011;17637;51.984;21.208;2022-11-09T05:55:31;51.67;;;30.77;;
30948;SDS011;17637;51.984;21.208;2022-11-09T05:57:58;51.58;;;30.80;;
30948;SDS011;17637;51.984;21.208;2022-11-09T06:00:25;56.55;;;31.98;;
30948;SDS011;17637;51.984;21.208;2022-11-09T06:02:53;53.53;;;30.52;;
30948;SDS011;17637;51.984;21.208;2022-11-09T06:05:27;54.05;;;32.47;;
30948;SDS011;17637;51.984;21.208;2022-11-09T06:07:54;52.75;;;31.23;;
30948;SDS011;17637;51.984;21.208;2022-11-09T06:10:21;52.90;;;32.03;;
30948;SDS011;17637;51.984;21.208;2022-11-09T06:12:51;61.95;;;33.00;;
30948;SDS011;17637;51.984;21.208;2022-11-09T06:15:18;53.23;;;31.80;;
30948;SDS011;17637;51.984;21.208;2022-11-09T06:17:49;54.72;;;32.25;;
30948;SDS011;17637;51.984;21.208;2022-11-09T06:20:17;64.13;;;35.05;;
30948;SDS011;17637;51.984;21.208;2022-11-09T06:22:51;55.85;;;33.03;;
30948;SDS011;17637;51.984;21.208;2022-11-09T06:25:30;57.72;;;34.03;;
30948;SDS011;17637;51.984;21.208;2022-11-09T06:27:58;58.25;;;33.55;;
30948;SDS011;17637;51.984;21.208;2022-11-09T06:30:26;55.75;;;32.28;;
30948;SDS011;17637;51.984;21.208;2022-11-09T06:32:57;59.60;;;34.83;;
30948;SDS011;17637;51.984;21.208;2022-11-09T06:35:28;60.47;;;33.80;;
30948;SDS011;17637;51.984;21.208;2022-11-09T06:37:56;55.65;;;33.13;;
30948;SDS011;17637;51.984;21.208;2022-11-09T06:42:57;49.28;;;29.52;;
30948;SDS011;17637;51.984;21.208;2022-11-09T06:45:25;56.53;;;31.70;;
30948;SDS011;17637;51.984;21.208;2022-11-09T06:47:57;58.20;;;34.17;;
30948;SDS011;17637;51.984;21.208;2022-11-09T06:50:26;60.90;;;33.88;;
30948;SDS011;17637;51.984;21.208;2022-11-09T06:52:55;54.42;;;31.90;;
30948;SDS011;17637;51.984;21.208;2022-11-09T06:55:27;57.15;;;34.15;;
30948;SDS011;17637;51.984;21.208;2022-11-09T06:57:55;54.72;;;32.28;;
30948;SDS011;17637;51.984;21.208;2022-11-09T07:00:23;55.03;;;32.65;;
30948;SDS011;17637;51.984;21.208;2022-11-09T07:02:50;49.80;;;31.17;;
30948;SDS011;17637;51.984;21.208;2022-11-09T07:05:18;47.78;;;29.38;;
30948;SDS011;17637;51.984;21.208;2022-11-09T07:07:46;49.20;;;30.20;;
30948;SDS011;17637;51.984;21.208;2022-11-09T07:10:12;48.15;;;30.13;;
30948;SDS011;17637;51.984;21.208;2022-11-09T07:12:40;47.70;;;29.80;;
30948;SDS011;17637;51.984;21.208;2022-11-09T07:15:08;50.65;;;31.85;;
30948;SDS011;17637;51.984;21.208;2022-11-09T07:17:37;53.13;;;33.72;;
30948;SDS011;17637;51.984;21.208;2022-11-09T07:20:06;47.35;;;30.70;;
30948;SDS011;17637;51.984;21.208;2022-11-09T07:22:34;47.55;;;31.60;;
30948;SDS011;17637;51.984;21.208;2022-11-09T07:25:05;56.45;;;33.42;;
30948;SDS011;17637;51.984;21.208;2022-11-09T07:27:33;56.95;;;33.83;;
30948;SDS011;17637;51.984;21.208;2022-11-09T07:30:00;51.88;;;33.35;;
30948;SDS011;17637;51.984;21.208;2022-11-09T07:32:28;47.50;;;31.45;;
30948;SDS011;17637;51.984;21.208;2022-11-09T07:35:15;57.20;;;34.13;;
30948;SDS011;17637;51.984;21.208;2022-11-09T07:37:42;53.72;;;34.42;;
30948;SDS011;17637;51.984;21.208;2022-11-09T07:40:09;51.10;;;33.22;;
30948;SDS011;17637;51.984;21.208;2022-11-09T07:42:36;51.42;;;32.45;;
30948;SDS011;17637;51.984;21.208;2022-11-09T07:45:04;54.45;;;33.45;;
30948;SDS011;17637;51.984;21.208;2022-11-09T07:47:31;58.70;;;35.67;;
30948;SDS011;17637;51.984;21.208;2022-11-09T07:49:58;53.70;;;34.67;;
30948;SDS011;17637;51.984;21.208;2022-11-09T07:52:25;53.03;;;32.97;;
30948;SDS011;17637;51.984;21.208;2022-11-09T07:54:52;48.13;;;32.65;;
30948;SDS011;17637;51.984;21.208;2022-11-09T07:57:19;55.25;;;34.28;;
30948;SDS011;17637;51.984;21.208;2022-11-09T07:59:46;54.10;;;34.70;;
30948;SDS011;17637;51.984;21.208;2022-11-09T08:02:13;52.95;;;35.35;;
30948;SDS011;17637;51.984;21.208;2022-11-09T08:04:41;51.85;;;31.95;;
30948;SDS011;17637;51.984;21.208;2022-11-09T08:07:08;52.53;;;31.33;;
30948;SDS011;17637;51.984;21.208;2022-11-09T08:09:35;50.40;;;32.35;;
30948;SDS011;17637;51.984;21.208;2022-11-09T08:12:02;58.10;;;33.92;;
30948;SDS011;17637;51.984;21.208;2022-11-09T08:14:29;52.10;;;34.63;;
30948;SDS011;17637;51.984;21.208;2022-11-09T08:16:57;47.58;;;30.65;;
30948;SDS011;17637;51.984;21.208;2022-11-09T08:19:24;51.20;;;33.45;;
30948;SDS011;17637;51.984;21.208;2022-11-09T08:21:51;52.95;;;33.10;;
30948;SDS011;17637;51.984;21.208;2022-11-09T08:24:22;54.63;;;34.60;;
30948;SDS011;17637;51.984;21.208;2022-11-09T08:26:49;49.45;;;31.08;;
30948;SDS011;17637;51.984;21.208;2022-11-09T08:29:17;50.60;;;33.00;;
30948;SDS011;17637;51.984;21.208;2022-11-09T08:31:44;54.30;;;34.25;;
30948;SDS011;17637;51.984;21.208;2022-11-09T08:34:11;49.40;;;31.90;;
30948;SDS011;17637;51.984;21.208;2022-11-09T08:36:41;51.78;;;32.33;;
30948;SDS011;17637;51.984;21.208;2022-11-09T08:39:09;52.20;;;33.65;;
30948;SDS011;17637;51.984;21.208;2022-11-09T08:41:36;57.90;;;35.17;;
30948;SDS011;17637;51.984;21.208;2022-11-09T08:44:03;48.70;;;32.05;;
30948;SDS011;17637;51.984;21.208;2022-11-09T08:46:30;54.05;;;32.85;;
30948;SDS011;17637;51.984;21.208;2022-11-09T08:49:03;53.95;;;33.10;;
30948;SDS011;17637;51.984;21.208;2022-11-09T08:51:30;50.45;;;32.50;;
30948;SDS011;17637;51.984;21.208;2022-11-09T08:53:58;50.80;;;31.92;;
30948;SDS011;17637;51.984;21.208;2022-11-09T08:56:24;51.08;;;32.55;;
30948;SDS011;17637;51.984;21.208;2022-11-09T08:58:51;49.50;;;32.15;;
30948;SDS011;17637;51.984;21.208;2022-11-09T09:01:18;53.10;;;31.52;;
30948;SDS011;17637;51.984;21.208;2022-11-09T09:03:46;51.38;;;33.35;;
30948;SDS011;17637;51.984;21.208;2022-11-09T09:06:14;52.05;;;32.90;;
30948;SDS011;17637;51.984;21.208;2022-11-09T09:08:41;51.15;;;33.92;;
30948;SDS011;17637;51.984;21.208;2022-11-09T09:11:08;49.95;;;33.20;;
30948;SDS011;17637;51.984;21.208;2022-11-09T09:13:35;51.50;;;33.45;;
30948;SDS011;17637;51.984;21.208;2022-11-09T09:16:12;52.67;;;34.88;;
30948;SDS011;17637;51.984;21.208;2022-11-09T09:18:40;51.97;;;34.72;;
30948;SDS011;17637;51.984;21.208;2022-11-09T09:21:08;50.22;;;33.38;;
30948;SDS011;17637;51.984;21.208;2022-11-09T09:23:36;47.53;;;32.92;;
30948;SDS011;17637;51.984;21.208;2022-11-09T09:26:03;53.72;;;33.75;;
30948;SDS011;17637;51.984;21.208;2022-11-09T09:28:31;49.20;;;33.42;;
30948;SDS011;17637;51.984;21.208;2022-11-09T09:30:59;53.65;;;32.90;;
30948;SDS011;17637;51.984;21.208;2022-11-09T09:33:27;46.45;;;30.48;;
30948;SDS011;17637;51.984;21.208;2022-11-09T09:35:55;44.65;;;28.48;;
30948;SDS011;17637;51.984;21.208;2022-11-09T09:38:25;44.63;;;27.88;;
30948;SDS011;17637;51.984;21.208;2022-11-09T09:40:55;45.28;;;28.92;;
30948;SDS011;17637;51.984;21.208;2022-11-09T09:43:26;42.17;;;27.75;;
30948;SDS011;17637;51.984;21.208;2022-11-09T09:45:57;41.70;;;27.48;;
30948;SDS011;17637;51.984;21.208;2022-11-09T09:48:28;39.47;;;26.50;;
30948;SDS011;17637;51.984;21.208;2022-11-09T09:51:12;41.47;;;28.27;;
30948;SDS011;17637;51.984;21.208;2022-11-09T09:57:18;39.25;;;26.70;;
30948;SDS011;17637;51.984;21.208;2022-11-09T09:59:50;39.25;;;26.85;;
30948;SDS011;17637;51.984;21.208;2022-11-09T10:02:24;41.75;;;27.25;;
30948;SDS011;17637;51.984;21.208;2022-11-09T10:04:53;40.72;;;26.40;;
30948;SDS011;17637;51.984;21.208;2022-11-09T10:16:06;42.85;;;26.05;;
30948;SDS011;17637;51.984;21.208;2022-11-09T10:21:37;39.10;;;27.55;;
30948;SDS011;17637;51.984;21.208;2022-11-09T10:24:31;37.88;;;25.58;;
30948;SDS011;17637;51.984;21.208;2022-11-09T10:27:25;35.22;;;25.15;;
30948;SDS011;17637;51.984;21.208;2022-11-09T10:29:59;37.03;;;24.50;;
30948;SDS011;17637;51.984;21.208;2022-11-09T10:32:30;37.47;;;24.67;;
30948;SDS011;17637;51.984;21.208;2022-11-09T10:35:02;34.80;;;23.90;;
30948;SDS011;17637;51.984;21.208;2022-11-09T10:37:47;37.33;;;24.45;;
30948;SDS011;17637;51.984;21.208;2022-11-09T10:43:05;32.75;;;23.88;;
30948;SDS011;17637;51.984;21.208;2022-11-09T10:45:37;37.00;;;25.20;;
30948;SDS011;17637;51.984;21.208;2022-11-09T10:48:06;35.42;;;23.92;;
30948;SDS011;17637;51.984;21.208;2022-11-09T10:50:49;34.38;;;24.65;;
30948;SDS011;17637;51.984;21.208;2022-11-09T10:53:19;31.70;;;23.45;;
30948;SDS011;17637;51.984;21.208;2022-11-09T10:55:51;35.13;;;24.40;;
30948;SDS011;17637;51.984;21.208;2022-11-09T11:01:03;34.58;;;24.33;;
30948;SDS011;17637;51.984;21.208;2022-11-09T11:03:38;33.30;;;24.20;;
30948;SDS011;17637;51.984;21.208;2022-11-09T11:08:42;33.47;;;23.48;;
30948;SDS011;17637;51.984;21.208;2022-11-09T11:11:29;35.08;;;23.88;;
30948;SDS011;17637;51.984;21.208;2022-11-09T11:14:12;32.75;;;23.15;;
30948;SDS011;17637;51.984;21.208;2022-11-09T11:16:55;35.42;;;24.02;;
30948;SDS011;17637;51.984;21.208;2022-11-09T11:19:30;36.38;;;23.13;;
30948;SDS011;17637;51.984;21.208;2022-11-09T11:24:40;33.05;;;24.02;;
30948;SDS011;17637;51.984;21.208;2022-11-09T11:27:15;29.92;;;22.15;;
30948;SDS011;17637;51.984;21.208;2022-11-09T11:30:04;32.63;;;22.88;;
30948;SDS011;17637;51.984;21.208;2022-11-09T11:32:36;32.17;;;22.30;;
30948;SDS011;17637;51.984;21.208;2022-11-09T11:35:04;33.92;;;22.77;;
30948;SDS011;17637;51.984;21.208;2022-11-09T11:37:45;36.10;;;24.73;;
30948;SDS011;17637;51.984;21.208;2022-11-09T11:40:28;33.63;;;23.73;;
30948;SDS011;17637;51.984;21.208;2022-11-09T11:43:12;33.33;;;23.05;;
30948;SDS011;17637;51.984;21.208;2022-11-09T11:45:41;32.65;;;24.33;;
30948;SDS011;17637;51.984;21.208;2022-11-09T12:02:44;33.05;;;21.27;;
30948;SDS011;17637;51.984;21.208;2022-11-09T12:05:36;27.77;;;21.38;;
30948;SDS011;17637;51.984;21.208;2022-11-09T12:22:14;32.90;;;22.85;;
30948;SDS011;17637;51.984;21.208;2022-11-09T12:25:16;32.72;;;23.60;;
30948;SDS011;17637;51.984;21.208;2022-11-09T12:33:27;30.67;;;21.92;;
30948;SDS011;17637;51.984;21.208;2022-11-09T12:36:14;35.33;;;22.27;;
30948;SDS011;17637;51.984;21.208;2022-11-09T12:41:19;29.08;;;21.40;;
30948;SDS011;17637;51.984;21.208;2022-11-09T12:44:03;32.45;;;22.73;;
30948;SDS011;17637;51.984;21.208;2022-11-09T12:46:47;30.33;;;21.33;;
30948;SDS011;17637;51.984;21.208;2022-11-09T12:49:31;29.42;;;21.08;;
30948;SDS011;17637;51.984;21.208;2022-11-09T12:51:59;30.55;;;21.40;;
30948;SDS011;17637;51.984;21.208;2022-11-09T12:54:26;29.65;;;21.38;;
30948;SDS011;17637;51.984;21.208;2022-11-09T12:57:07;32.25;;;20.83;;
30948;SDS011;17637;51.984;21.208;2022-11-09T12:59:48;29.85;;;21.75;;
30948;SDS011;17637;51.984;21.208;2022-11-09T13:05:01;29.85;;;22.27;;
30948;SDS011;17637;51.984;21.208;2022-11-09T13:07:49;31.35;;;21.48;;
30948;SDS011;17637;51.984;21.208;2022-11-09T13:13:00;34.22;;;24.08;;
30948;SDS011;17637;51.984;21.208;2022-11-09T13:15:37;31.42;;;22.77;;
30948;SDS011;17637;51.984;21.208;2022-11-09T13:18:22;32.33;;;22.60;;
30948;SDS011;17637;51.984;21.208;2022-11-09T13:20:51;32.08;;;23.95;;
30948;SDS011;17637;51.984;21.208;2022-11-09T13:23:25;31.67;;;21.92;;
30948;SDS011;17637;51.984;21.208;2022-11-09T13:29:07;30.42;;;20.92;;
30948;SDS011;17637;51.984;21.208;2022-11-09T13:43:00;33.25;;;21.67;;
30948;SDS011;17637;51.984;21.208;2022-11-09T13:45:32;32.88;;;21.77;;
30948;SDS011;17637;51.984;21.208;2022-11-09T13:48:00;30.10;;;22.17;;
30948;SDS011;17637;51.984;21.208;2022-11-09T13:50:29;32.97;;;23.23;;
30948;SDS011;17637;51.984;21.208;2022-11-09T13:52:58;33.53;;;22.70;;
30948;SDS011;17637;51.984;21.208;2022-11-09T13:55:31;29.05;;;21.45;;
30948;SDS011;17637;51.984;21.208;2022-11-09T13:58:26;33.05;;;22.80;;
30948;SDS011;17637;51.984;21.208;2022-11-09T14:00:59;29.85;;;21.02;;
30948;SDS011;17637;51.984;21.208;2022-11-09T14:03:27;32.67;;;22.63;;
30948;SDS011;17637;51.984;21.208;2022-11-09T14:05:59;33.72;;;22.58;;
30948;SDS011;17637;51.984;21.208;2022-11-09T14:08:29;36.45;;;21.60;;
30948;SDS011;17637;51.984;21.208;2022-11-09T14:14:00;35.85;;;24.52;;
30948;SDS011;17637;51.984;21.208;2022-11-09T14:19:51;34.72;;;24.58;;
30948;SDS011;17637;51.984;21.208;2022-11-09T14:22:28;38.35;;;25.88;;
30948;SDS011;17637;51.984;21.208;2022-11-09T14:25:17;35.30;;;25.45;;
30948;SDS011;17637;51.984;21.208;2022-11-09T14:27:46;33.38;;;24.35;;
30948;SDS011;17637;51.984;21.208;2022-11-09T14:30:22;30.60;;;22.50;;
30948;SDS011;17637;51.984;21.208;2022-11-09T14:32:52;30.52;;;22.20;;
30948;SDS011;17637;51.984;21.208;2022-11-09T14:37:54;30.20;;;22.35;;
30948;SDS011;17637;51.984;21.208;2022-11-09T14:40:28;32.95;;;23.15;;
30948;SDS011;17637;51.984;21.208;2022-11-09T14:42:57;38.78;;;29.10;;
30948;SDS011;17637;51.984;21.208;2022-11-09T14:45:51;40.25;;;28.90;;
30948;SDS011;17637;51.984;21.208;2022-11-09T14:48:21;38.53;;;28.58;;
30948;SDS011;17637;51.984;21.208;2022-11-09T14:50:50;41.35;;;29.70;;
30948;SDS011;17637;51.984;21.208;2022-11-09T14:53:19;38.58;;;25.63;;
30948;SDS011;17637;51.984;21.208;2022-11-09T14:55:52;38.47;;;27.65;;
30948;SDS011;17637;51.984;21.208;2022-11-09T14:58:20;33.63;;;26.25;;
30948;SDS011;17637;51.984;21.208;2022-11-09T15:01:14;40.40;;;28.88;;
30948;SDS011;17637;51.984;21.208;2022-11-09T15:06:50;38.92;;;26.73;;
30948;SDS011;17637;51.984;21.208;2022-11-09T15:09:21;31.52;;;24.45;;
30948;SDS011;17637;51.984;21.208;2022-11-09T15:11:55;30.98;;;23.50;;
30948;SDS011;17637;51.984;21.208;2022-11-09T15:14:24;37.08;;;24.20;;
30948;SDS011;17637;51.984;21.208;2022-11-09T15:16:58;35.05;;;25.58;;
30948;SDS011;17637;51.984;21.208;2022-11-09T15:19:53;37.20;;;26.75;;
30948;SDS011;17637;51.984;21.208;2022-11-09T15:30:36;52.30;;;35.88;;
30948;SDS011;17637;51.984;21.208;2022-11-09T15:36:28;68.97;;;44.08;;
30948;SDS011;17637;51.984;21.208;2022-11-09T15:39:34;71.65;;;47.00;;
30948;SDS011;17637;51.984;21.208;2022-11-09T15:41:45;64.88;;;43.70;;
30948;SDS011;17637;51.984;21.208;2022-11-09T15:44:12;57.38;;;40.58;;
30948;SDS011;17637;51.984;21.208;2022-11-09T15:46:49;50.60;;;34.85;;
30948;SDS011;17637;51.984;21.208;2022-11-09T15:49:25;46.67;;;34.15;;
30948;SDS011;17637;51.984;21.208;2022-11-09T15:51:53;49.55;;;32.10;;
30948;SDS011;17637;51.984;21.208;2022-11-09T15:54:21;45.95;;;32.83;;
30948;SDS011;17637;51.984;21.208;2022-11-09T15:56:49;47.00;;;32.95;;
30948;SDS011;17637;51.984;21.208;2022-11-09T15:59:19;54.83;;;37.05;;
30948;SDS011;17637;51.984;21.208;2022-11-09T16:01:50;46.70;;;32.97;;
30948;SDS011;17637;51.984;21.208;2022-11-09T16:04:18;46.50;;;33.00;;
30948;SDS011;17637;51.984;21.208;2022-11-09T16:06:45;49.47;;;33.00;;
30948;SDS011;17637;51.984;21.208;2022-11-09T16:09:13;47.33;;;32.38;;
30948;SDS011;17637;51.984;21.208;2022-11-09T16:11:40;43.70;;;30.58;;
30948;SDS011;17637;51.984;21.208;2022-11-09T16:14:07;43.95;;;31.50;;
30948;SDS011;17637;51.984;21.208;2022-11-09T16:16:35;42.67;;;31.38;;
30948;SDS011;17637;51.984;21.208;2022-11-09T16:19:02;49.63;;;35.65;;
30948;SDS011;17637;51.984;21.208;2022-11-09T16:21:29;45.55;;;31.15;;
30948;SDS011;17637;51.984;21.208;2022-11-09T16:23:56;47.20;;;32.42;;
30948;SDS011;17637;51.984;21.208;2022-11-09T16:26:24;50.63;;;35.63;;